Time;durP1;ratioP1;P1;durP2;ratioP2;P2;SDS_P1;SDS_P2;PMS_P1;PMS_P2;Temp;Humidity;BMP_temperature;BMP_pressure;BME280_temperature;BME280_humidity;BME280_pressure;Samples;Min_cycle;Max_cycle;Signal;HPM_P1;HPM_P2
2022/01/07 00:00:53;;;;;;;11.52;4.90;;;;;;;;;;5069815;28;20063;-88
2022/01/07 00:03:22;;;;;;;14.57;5.00;;;;;;;;;;5073215;28;20028;-86
2022/01/07 00:05:47;;;;;;;10.90;4.72;;;;;;;;;;5075777;28;20161;-86
2022/01/07 00:08:19;;;;;;;11.60;5.55;;;;;;;;;;5074600;28;20050;-85
2022/01/07 00:10:45;;;;;;;10.95;4.75;;;;;;;;;;5077935;28;20024;-87
2022/01/07 00:13:11;;;;;;;10.50;5.10;;;;;;;;;;5080595;28;20401;-87
2022/01/07 00:15:54;;;;;;;10.65;4.85;;;;;;;;;;5081964;28;20595;-88
2022/01/07 00:18:20;;;;;;;13.00;4.95;;;;;;;;;;5077134;28;20063;-87
2022/01/07 00:20:46;;;;;;;13.07;4.80;;;;;;;;;;5075794;28;20031;-88
2022/01/07 00:23:11;;;;;;;9.73;5.38;;;;;;;;;;5070675;28;20820;-87
2022/01/07 00:25:37;;;;;;;11.07;4.60;;;;;;;;;;5077416;28;20039;-86
2022/01/07 00:28:04;;;;;;;11.05;4.57;;;;;;;;;;5078052;28;20027;-85
2022/01/07 00:30:29;;;;;;;11.38;4.65;;;;;;;;;;5078693;28;20467;-88
2022/01/07 00:32:54;;;;;;;9.68;4.32;;;;;;;;;;5075330;28;20057;-88
2022/01/07 00:35:21;;;;;;;7.55;3.90;;;;;;;;;;5080953;28;20397;-85
2022/01/07 00:37:48;;;;;;;7.25;3.58;;;;;;;;;;5070542;28;20063;-88
2022/01/07 00:40:21;;;;;;;10.43;4.40;;;;;;;;;;5075554;28;20832;-86
2022/01/07 00:42:49;;;;;;;10.65;3.97;;;;;;;;;;5075465;28;20478;-86
2022/01/07 00:45:14;;;;;;;8.63;4.10;;;;;;;;;;5069584;28;20028;-87
2022/01/07 00:47:40;;;;;;;9.35;3.92;;;;;;;;;;5077478;28;20025;-87
2022/01/07 00:50:07;;;;;;;8.38;4.18;;;;;;;;;;5071658;28;20155;-84
2022/01/07 00:52:33;;;;;;;8.90;3.78;;;;;;;;;;5076804;28;20157;-88
2022/01/07 00:54:58;;;;;;;10.82;3.95;;;;;;;;;;5072052;28;20032;-84
2022/01/07 00:57:24;;;;;;;10.82;4.05;;;;;;;;;;5076843;28;20500;-88
2022/01/07 00:59:49;;;;;;;11.07;4.43;;;;;;;;;;5075645;28;20118;-88
2022/01/07 01:02:14;;;;;;;9.48;4.00;;;;;;;;;;5075174;28;20550;-87
2022/01/07 01:04:41;;;;;;;8.05;3.60;;;;;;;;;;5073290;28;20028;-86
2022/01/07 01:07:06;;;;;;;9.07;3.95;;;;;;;;;;5073326;28;20028;-87
2022/01/07 01:09:31;;;;;;;7.90;3.85;;;;;;;;;;5073818;28;20036;-85
2022/01/07 01:11:57;;;;;;;10.32;3.97;;;;;;;;;;5070452;28;20674;-89
2022/01/07 01:14:23;;;;;;;9.82;3.45;;;;;;;;;;5074817;28;20020;-88
2022/01/07 01:16:49;;;;;;;8.85;4.00;;;;;;;;;;5071600;28;20048;-86
2022/01/07 01:19:14;;;;;;;7.90;3.75;;;;;;;;;;5074909;28;20035;-87
2022/01/07 01:21:40;;;;;;;9.40;3.50;;;;;;;;;;5073869;28;20160;-88
2022/01/07 01:24:05;;;;;;;6.25;3.58;;;;;;;;;;5077549;28;20028;-87
2022/01/07 01:26:31;;;;;;;11.45;4.68;;;;;;;;;;5076351;28;20036;-86
2022/01/07 01:28:56;;;;;;;5.88;3.53;;;;;;;;;;5072950;28;20337;-86
2022/01/07 01:31:22;;;;;;;7.35;3.55;;;;;;;;;;5073874;28;20118;-84
2022/01/07 01:33:48;;;;;;;6.65;3.55;;;;;;;;;;5070128;28;20024;-87
2022/01/07 01:36:14;;;;;;;9.05;3.80;;;;;;;;;;5071039;28;20028;-84
2022/01/07 01:38:40;;;;;;;11.65;3.65;;;;;;;;;;5074144;28;20031;-85
2022/01/07 01:41:07;;;;;;;8.90;4.13;;;;;;;;;;5070013;28;20024;-86
2022/01/07 01:43:33;;;;;;;8.57;3.63;;;;;;;;;;5069460;28;20062;-87
2022/01/07 01:45:59;;;;;;;8.45;3.70;;;;;;;;;;5069703;28;20119;-87
2022/01/07 01:48:25;;;;;;;7.30;3.22;;;;;;;;;;5078737;28;20103;-87
2022/01/07 01:50:51;;;;;;;9.50;3.92;;;;;;;;;;5072916;28;20135;-88
2022/01/07 01:53:17;;;;;;;11.00;4.00;;;;;;;;;;5072034;28;20115;-89
2022/01/07 01:55:44;;;;;;;11.82;3.60;;;;;;;;;;5070181;28;20028;-88
2022/01/07 01:58:11;;;;;;;7.05;3.17;;;;;;;;;;5070935;28;20393;-88
2022/01/07 02:00:37;;;;;;;10.93;3.30;;;;;;;;;;5071506;28;20032;-85
2022/01/07 02:03:02;;;;;;;9.15;3.78;;;;;;;;;;5071268;28;20021;-85
2022/01/07 02:05:28;;;;;;;9.02;3.95;;;;;;;;;;5074806;28;20034;-85
2022/01/07 02:07:54;;;;;;;11.18;3.78;;;;;;;;;;5069401;28;20017;-87
2022/01/07 02:10:19;;;;;;;8.07;3.08;;;;;;;;;;5070462;28;20024;-85
2022/01/07 02:12:45;;;;;;;8.55;2.97;;;;;;;;;;5073034;28;20020;-87
2022/01/07 02:15:13;;;;;;;9.35;3.70;;;;;;;;;;5064106;28;20052;-87
2022/01/07 02:17:44;;;;;;;6.47;2.85;;;;;;;;;;5071916;28;20474;-87
2022/01/07 02:20:12;;;;;;;6.40;2.92;;;;;;;;;;5074914;28;20032;-86
2022/01/07 02:22:37;;;;;;;6.03;2.72;;;;;;;;;;5074801;28;20032;-87
2022/01/07 02:25:03;;;;;;;7.80;2.75;;;;;;;;;;5073072;28;20107;-84
2022/01/07 02:27:29;;;;;;;5.65;2.70;;;;;;;;;;5076560;28;20715;-85
2022/01/07 02:29:55;;;;;;;8.15;2.97;;;;;;;;;;5070093;28;20654;-89
2022/01/07 02:32:21;;;;;;;6.43;3.05;;;;;;;;;;5073011;28;20028;-87
2022/01/07 02:34:47;;;;;;;6.43;2.75;;;;;;;;;;5071870;28;20107;-88
2022/01/07 02:37:13;;;;;;;7.60;3.50;;;;;;;;;;5070674;28;20482;-85
2022/01/07 02:39:39;;;;;;;9.48;2.88;;;;;;;;;;5071024;28;20074;-88
2022/01/07 02:42:05;;;;;;;9.50;3.05;;;;;;;;;;5072292;28;20036;-88
2022/01/07 02:44:30;;;;;;;9.35;2.88;;;;;;;;;;5074033;28;20067;-89
2022/01/07 02:46:55;;;;;;;9.80;2.85;;;;;;;;;;5067389;28;20055;-86
2022/01/07 02:49:21;;;;;;;7.40;2.45;;;;;;;;;;5069813;28;20032;-87
2022/01/07 02:51:46;;;;;;;6.53;2.90;;;;;;;;;;5071444;28;20439;-87
2022/01/07 02:54:12;;;;;;;7.95;2.80;;;;;;;;;;5073050;28;20173;-86
2022/01/07 02:56:39;;;;;;;5.78;2.50;;;;;;;;;;5069701;28;20494;-86
2022/01/07 02:59:06;;;;;;;8.05;3.05;;;;;;;;;;5068664;28;20032;-88
2022/01/07 03:01:32;;;;;;;9.30;2.83;;;;;;;;;;5073886;28;20027;-86
2022/01/07 03:03:58;;;;;;;7.82;2.72;;;;;;;;;;5077177;28;20086;-86
2022/01/07 03:06:23;;;;;;;11.05;3.20;;;;;;;;;;5073498;28;20156;-88
2022/01/07 03:08:50;;;;;;;5.53;2.85;;;;;;;;;;5071205;28;20057;-87
2022/01/07 03:11:16;;;;;;;7.75;2.97;;;;;;;;;;5069380;28;20561;-84
2022/01/07 03:13:42;;;;;;;5.50;2.47;;;;;;;;;;5069197;28;20894;-86
2022/01/07 03:16:07;;;;;;;7.55;3.10;;;;;;;;;;5073907;28;20052;-85
2022/01/07 03:18:33;;;;;;;5.72;2.75;;;;;;;;;;5074677;28;20028;-86
2022/01/07 03:21:00;;;;;;;7.72;2.67;;;;;;;;;;5073524;28;20031;-85
2022/01/07 03:23:26;;;;;;;5.47;2.90;;;;;;;;;;5072763;28;20032;-85
2022/01/07 03:25:51;;;;;;;5.75;2.75;;;;;;;;;;5077084;28;20457;-86
2022/01/07 03:28:17;;;;;;;6.95;2.78;;;;;;;;;;5076350;28;20029;-85
2022/01/07 03:30:42;;;;;;;4.75;2.97;;;;;;;;;;5074239;28;20033;-87
2022/01/07 03:33:08;;;;;;;5.70;2.70;;;;;;;;;;5077866;28;20028;-87
2022/01/07 03:35:34;;;;;;;5.07;2.60;;;;;;;;;;5075984;28;20444;-85
2022/01/07 03:37:59;;;;;;;5.53;2.63;;;;;;;;;;5075926;28;20074;-85
2022/01/07 03:40:25;;;;;;;6.22;2.67;;;;;;;;;;5069728;28;20474;-86
2022/01/07 03:42:51;;;;;;;8.77;3.28;;;;;;;;;;5069080;28;20376;-87
2022/01/07 03:45:17;;;;;;;6.78;3.30;;;;;;;;;;5074181;28;20024;-84
2022/01/07 03:47:43;;;;;;;6.15;3.30;;;;;;;;;;5075503;28;20036;-85
2022/01/07 03:50:12;;;;;;;6.82;3.10;;;;;;;;;;5076332;28;20677;-86
2022/01/07 03:52:38;;;;;;;6.50;2.97;;;;;;;;;;5073616;28;20432;-88
2022/01/07 03:55:10;;;;;;;6.88;2.90;;;;;;;;;;5070982;28;20056;-85
2022/01/07 03:57:35;;;;;;;5.65;2.88;;;;;;;;;;5073416;28;20523;-86
2022/01/07 04:00:01;;;;;;;9.52;3.17;;;;;;;;;;5073163;28;20117;-88
2022/01/07 04:02:26;;;;;;;5.85;3.28;;;;;;;;;;5074575;28;20095;-86
2022/01/07 04:04:51;;;;;;;5.85;2.80;;;;;;;;;;5074924;28;20028;-85
2022/01/07 04:07:17;;;;;;;6.50;3.13;;;;;;;;;;5075811;28;20065;-85
2022/01/07 04:09:42;;;;;;;6.43;3.00;;;;;;;;;;5071765;28;20032;-85
2022/01/07 04:12:08;;;;;;;6.28;3.20;;;;;;;;;;5076890;28;20054;-86
2022/01/07 04:14:33;;;;;;;7.05;3.40;;;;;;;;;;5074626;28;20039;-86
2022/01/07 04:16:59;;;;;;;6.57;3.42;;;;;;;;;;5072587;28;20053;-86
2022/01/07 04:19:24;;;;;;;5.85;3.03;;;;;;;;;;5072512;28;20101;-86
2022/01/07 04:21:50;;;;;;;7.32;2.85;;;;;;;;;;5071271;28;20395;-88
2022/01/07 04:24:16;;;;;;;5.68;2.97;;;;;;;;;;5074305;28;20028;-88
2022/01/07 04:26:41;;;;;;;5.75;3.33;;;;;;;;;;5072955;28;20128;-88
2022/01/07 04:29:07;;;;;;;5.10;3.28;;;;;;;;;;5075391;28;20107;-88
2022/01/07 04:31:32;;;;;;;6.47;3.20;;;;;;;;;;5075326;28;20032;-85
2022/01/07 04:33:58;;;;;;;7.88;3.40;;;;;;;;;;5077352;28;20144;-86
2022/01/07 04:36:23;;;;;;;8.45;3.22;;;;;;;;;;5072335;28;20478;-87
2022/01/07 04:38:48;;;;;;;5.45;3.20;;;;;;;;;;5068708;28;20117;-85
2022/01/07 04:41:14;;;;;;;6.97;3.10;;;;;;;;;;5067010;28;20055;-87
2022/01/07 04:43:39;;;;;;;7.07;3.55;;;;;;;;;;5069632;28;20040;-85
2022/01/07 04:46:05;;;;;;;7.75;3.30;;;;;;;;;;5070681;28;20032;-87
2022/01/07 04:48:30;;;;;;;9.10;3.70;;;;;;;;;;5071536;28;20036;-89
2022/01/07 04:50:56;;;;;;;6.68;3.42;;;;;;;;;;5072009;28;20371;-87
2022/01/07 04:53:21;;;;;;;6.13;3.30;;;;;;;;;;5072195;28;20382;-86
2022/01/07 04:55:47;;;;;;;7.72;3.30;;;;;;;;;;5071591;28;20036;-89
2022/01/07 04:58:13;;;;;;;6.45;3.65;;;;;;;;;;5076777;28;20036;-85
2022/01/07 05:00:40;;;;;;;9.40;4.05;;;;;;;;;;5071901;28;20393;-87
2022/01/07 05:03:06;;;;;;;9.27;3.60;;;;;;;;;;5070125;28;20031;-86
2022/01/07 05:05:31;;;;;;;6.45;3.72;;;;;;;;;;5073509;28;20537;-87
2022/01/07 05:07:57;;;;;;;8.20;4.00;;;;;;;;;;5074516;28;20033;-87
2022/01/07 05:10:22;;;;;;;5.80;3.60;;;;;;;;;;5074665;28;20061;-86
2022/01/07 05:12:48;;;;;;;5.47;3.75;;;;;;;;;;5078974;28;20075;-86
2022/01/07 05:15:15;;;;;;;7.05;3.53;;;;;;;;;;5068711;28;20044;-88
2022/01/07 05:17:42;;;;;;;7.35;4.20;;;;;;;;;;5076023;28;20387;-85
2022/01/07 05:20:08;;;;;;;6.45;3.95;;;;;;;;;;5081448;28;20388;-88
2022/01/07 05:22:33;;;;;;;6.85;4.10;;;;;;;;;;5070574;28;20028;-87
2022/01/07 05:24:59;;;;;;;7.43;4.15;;;;;;;;;;5071807;28;20430;-88
2022/01/07 05:27:24;;;;;;;7.30;4.32;;;;;;;;;;5071000;28;20027;-86
2022/01/07 05:29:49;;;;;;;7.90;4.25;;;;;;;;;;5072987;28;20054;-89
2022/01/07 05:32:15;;;;;;;7.30;4.97;;;;;;;;;;5073524;28;20019;-85
2022/01/07 05:34:40;;;;;;;8.95;5.03;;;;;;;;;;5070048;28;20038;-87
2022/01/07 05:37:07;;;;;;;11.02;5.00;;;;;;;;;;5071455;28;20401;-85
2022/01/07 05:39:32;;;;;;;6.93;4.50;;;;;;;;;;5073606;28;20035;-87
2022/01/07 05:41:59;;;;;;;7.53;4.78;;;;;;;;;;5070591;28;20036;-87
2022/01/07 05:44:25;;;;;;;8.13;4.97;;;;;;;;;;5074830;28;20024;-87
2022/01/07 05:46:51;;;;;;;7.55;5.25;;;;;;;;;;5072343;28;20540;-89
2022/01/07 05:49:16;;;;;;;9.65;5.45;;;;;;;;;;5070560;28;20020;-88
2022/01/07 05:51:41;;;;;;;11.63;6.05;;;;;;;;;;5069924;28;20110;-88
2022/01/07 05:54:08;;;;;;;8.82;5.15;;;;;;;;;;5072339;28;20024;-87
2022/01/07 05:56:33;;;;;;;9.48;5.90;;;;;;;;;;5068355;28;20647;-86
2022/01/07 05:58:59;;;;;;;9.88;6.10;;;;;;;;;;5075817;28;20032;-87
2022/01/07 06:01:24;;;;;;;9.85;5.25;;;;;;;;;;5068397;28;20043;-88
2022/01/07 06:03:49;;;;;;;10.15;5.97;;;;;;;;;;5071009;28;20031;-87
2022/01/07 06:06:15;;;;;;;10.90;6.35;;;;;;;;;;5074840;28;20026;-88
2022/01/07 06:08:40;;;;;;;11.02;6.63;;;;;;;;;;5076771;28;20050;-87
2022/01/07 06:11:05;;;;;;;10.63;6.65;;;;;;;;;;5069708;28;20402;-88
2022/01/07 06:13:31;;;;;;;9.63;6.00;;;;;;;;;;5070423;28;20024;-85
2022/01/07 06:15:56;;;;;;;11.25;6.70;;;;;;;;;;5072167;28;20055;-87
2022/01/07 06:18:21;;;;;;;12.90;6.75;;;;;;;;;;5071279;28;20121;-88
2022/01/07 06:20:47;;;;;;;9.02;6.45;;;;;;;;;;5075395;28;20040;-85
2022/01/07 06:23:12;;;;;;;11.15;6.93;;;;;;;;;;5071797;28;20491;-87
2022/01/07 06:25:38;;;;;;;11.23;7.20;;;;;;;;;;5067012;28;20557;-84
2022/01/07 06:28:04;;;;;;;13.38;7.30;;;;;;;;;;5069936;28;20056;-85
2022/01/07 06:30:29;;;;;;;11.57;6.85;;;;;;;;;;5073709;28;20028;-88
2022/01/07 06:32:55;;;;;;;14.20;7.35;;;;;;;;;;5071969;28;20035;-88
2022/01/07 06:35:20;;;;;;;10.88;7.35;;;;;;;;;;5068340;28;20030;-88
2022/01/07 06:37:46;;;;;;;13.88;7.20;;;;;;;;;;5069038;28;20024;-88
2022/01/07 06:40:12;;;;;;;10.88;6.95;;;;;;;;;;5065794;28;20044;-87
2022/01/07 06:42:38;;;;;;;12.98;7.05;;;;;;;;;;5071132;28;20037;-88
2022/01/07 06:45:05;;;;;;;13.27;6.47;;;;;;;;;;5068421;28;20032;-87
2022/01/07 06:47:30;;;;;;;9.48;6.45;;;;;;;;;;5074254;28;20032;-85
2022/01/07 06:49:56;;;;;;;12.23;6.93;;;;;;;;;;5068958;28;20035;-88
2022/01/07 06:52:21;;;;;;;14.15;7.05;;;;;;;;;;5067113;28;20021;-87
2022/01/07 06:54:47;;;;;;;12.55;6.70;;;;;;;;;;5069940;28;20156;-88
2022/01/07 06:57:12;;;;;;;13.02;6.60;;;;;;;;;;5070339;28;20020;-88
2022/01/07 06:59:37;;;;;;;12.93;7.80;;;;;;;;;;5071083;28;20029;-85
2022/01/07 07:02:03;;;;;;;12.57;7.30;;;;;;;;;;5072955;28;20036;-87
2022/01/07 07:04:29;;;;;;;9.00;6.65;;;;;;;;;;5073350;28;20020;-88
2022/01/07 07:06:57;;;;;;;12.23;7.22;;;;;;;;;;5072853;28;20119;-85
2022/01/07 07:09:23;;;;;;;11.45;6.65;;;;;;;;;;5075913;28;20028;-86
2022/01/07 07:11:48;;;;;;;11.02;6.95;;;;;;;;;;5075132;28;20016;-84
2022/01/07 07:14:13;;;;;;;11.38;7.07;;;;;;;;;;5074260;28;20025;-85
2022/01/07 07:16:40;;;;;;;12.68;7.40;;;;;;;;;;5081727;28;20092;-88
2022/01/07 07:19:05;;;;;;;12.25;7.15;;;;;;;;;;5075713;28;20021;-89
2022/01/07 07:21:31;;;;;;;14.25;7.82;;;;;;;;;;5077590;28;20035;-88
2022/01/07 07:23:56;;;;;;;11.38;7.43;;;;;;;;;;5071590;28;20119;-88
2022/01/07 07:26:21;;;;;;;11.98;7.53;;;;;;;;;;5072023;28;20449;-87
2022/01/07 07:28:47;;;;;;;11.07;7.07;;;;;;;;;;5076156;28;20116;-85
2022/01/07 07:31:16;;;;;;;12.57;7.43;;;;;;;;;;5074077;28;20021;-88
2022/01/07 07:36:30;;;;;;;12.07;7.70;;;;;;;;;;5076990;28;20032;-88
2022/01/07 07:39:02;;;;;;;17.67;8.65;;;;;;;;;;5073463;28;20794;-86
2022/01/07 07:41:29;;;;;;;15.38;7.25;;;;;;;;;;5078251;28;20134;-89
2022/01/07 07:43:56;;;;;;;13.70;7.60;;;;;;;;;;5075890;28;20042;-87
2022/01/07 07:46:27;;;;;;;14.82;7.55;;;;;;;;;;5075231;28;20452;-88
2022/01/07 07:48:53;;;;;;;12.68;7.53;;;;;;;;;;5071658;28;20064;-87
2022/01/07 07:51:18;;;;;;;10.95;7.18;;;;;;;;;;5073691;28;20060;-87
2022/01/07 07:53:45;;;;;;;11.50;7.80;;;;;;;;;;5071765;28;20690;-86
2022/01/07 07:56:13;;;;;;;11.90;7.65;;;;;;;;;;5075874;28;20028;-85
2022/01/07 07:58:39;;;;;;;15.27;8.73;;;;;;;;;;5075421;28;20035;-84
2022/01/07 08:01:05;;;;;;;13.15;8.38;;;;;;;;;;5070795;28;20048;-85
2022/01/07 08:03:30;;;;;;;16.27;8.70;;;;;;;;;;5076513;28;20423;-87
2022/01/07 08:05:55;;;;;;;11.88;8.30;;;;;;;;;;5076967;28;20037;-85
2022/01/07 08:08:21;;;;;;;12.75;7.95;;;;;;;;;;5077956;28;20158;-88
2022/01/07 08:10:51;;;;;;;11.48;8.10;;;;;;;;;;5075327;28;20050;-87
2022/01/07 08:13:30;;;;;;;15.57;8.30;;;;;;;;;;5074566;28;20012;-87
2022/01/07 08:16:04;;;;;;;13.75;8.45;;;;;;;;;;5078716;28;20144;-89
2022/01/07 08:18:38;;;;;;;13.57;8.07;;;;;;;;;;5081346;28;20027;-86
2022/01/07 08:21:09;;;;;;;11.82;8.15;;;;;;;;;;5076324;28;20030;-87
2022/01/07 08:23:36;;;;;;;12.35;7.97;;;;;;;;;;5076052;28;20515;-87
2022/01/07 08:26:08;;;;;;;14.95;8.68;;;;;;;;;;5069825;28;20024;-88
2022/01/07 08:28:40;;;;;;;11.48;8.07;;;;;;;;;;5079693;28;20501;-89
2022/01/07 08:36:33;;;;;;;12.13;7.45;;;;;;;;;;5074716;28;20035;-87
2022/01/07 08:38:59;;;;;;;13.23;7.82;;;;;;;;;;5077205;28;20567;-88
2022/01/07 08:41:30;;;;;;;13.02;7.60;;;;;;;;;;5073621;28;20114;-87
2022/01/07 08:43:56;;;;;;;12.15;8.48;;;;;;;;;;5079365;28;20055;-85
2022/01/07 08:46:22;;;;;;;12.32;7.90;;;;;;;;;;5069646;28;20032;-88
2022/01/07 08:48:47;;;;;;;13.98;8.07;;;;;;;;;;5074434;28;20444;-88
2022/01/07 08:51:12;;;;;;;14.40;8.30;;;;;;;;;;5073804;28;20035;-87
2022/01/07 08:53:38;;;;;;;15.15;8.57;;;;;;;;;;5076264;28;20024;-86
2022/01/07 08:56:05;;;;;;;10.75;7.32;;;;;;;;;;5074903;28;20047;-85
2022/01/07 08:58:31;;;;;;;13.30;8.27;;;;;;;;;;5076785;28;20094;-85
2022/01/07 09:00:56;;;;;;;10.05;7.25;;;;;;;;;;5076078;28;20032;-85
2022/01/07 09:03:22;;;;;;;10.98;7.40;;;;;;;;;;5077215;28;20051;-87
2022/01/07 09:05:48;;;;;;;12.20;7.25;;;;;;;;;;5078205;28;20508;-88
2022/01/07 09:08:14;;;;;;;16.25;7.72;;;;;;;;;;5075121;28;20017;-87
2022/01/07 09:10:40;;;;;;;12.27;7.72;;;;;;;;;;5074902;28;20041;-87
2022/01/07 09:13:06;;;;;;;10.32;7.03;;;;;;;;;;5078490;28;20124;-87
2022/01/07 09:15:32;;;;;;;12.65;7.25;;;;;;;;;;5076921;28;20376;-88
2022/01/07 09:17:58;;;;;;;13.32;7.80;;;;;;;;;;5077314;28;20336;-87
2022/01/07 09:20:24;;;;;;;16.05;8.00;;;;;;;;;;5075506;28;20023;-88
2022/01/07 09:22:50;;;;;;;12.35;7.65;;;;;;;;;;5069605;28;20028;-87
2022/01/07 09:25:19;;;;;;;13.52;7.70;;;;;;;;;;5074770;28;20029;-86
2022/01/07 09:27:45;;;;;;;15.20;7.90;;;;;;;;;;5071105;28;20586;-87
2022/01/07 09:30:11;;;;;;;14.63;7.50;;;;;;;;;;5074664;28;20036;-87
2022/01/07 09:32:38;;;;;;;14.30;7.30;;;;;;;;;;5073092;28;20032;-87
2022/01/07 09:35:07;;;;;;;14.20;8.05;;;;;;;;;;5074781;28;20024;-87
2022/01/07 09:37:32;;;;;;;14.02;7.60;;;;;;;;;;5068619;28;20059;-86
2022/01/07 09:40:00;;;;;;;11.32;7.43;;;;;;;;;;5072308;28;20533;-87
2022/01/07 09:42:26;;;;;;;12.10;7.45;;;;;;;;;;5072816;28;20036;-88
2022/01/07 09:44:52;;;;;;;15.05;7.75;;;;;;;;;;5075825;28;20111;-86
2022/01/07 09:47:26;;;;;;;15.13;8.27;;;;;;;;;;5073442;28;20032;-85
2022/01/07 09:49:54;;;;;;;14.57;7.95;;;;;;;;;;5069630;28;20028;-87
2022/01/07 09:52:25;;;;;;;13.32;7.75;;;;;;;;;;5078156;28;20031;-86
2022/01/07 09:54:53;;;;;;;12.75;7.22;;;;;;;;;;5071232;28;20032;-87
2022/01/07 09:57:28;;;;;;;12.45;7.60;;;;;;;;;;5069534;28;20036;-84
2022/01/07 09:59:56;;;;;;;10.73;7.03;;;;;;;;;;5071892;28;20070;-85
2022/01/07 10:02:25;;;;;;;12.00;7.43;;;;;;;;;;5081159;28;20016;-88
2022/01/07 10:04:57;;;;;;;11.13;6.88;;;;;;;;;;5075179;28;20737;-85
2022/01/07 10:07:26;;;;;;;14.75;7.20;;;;;;;;;;5076184;28;20029;-86
2022/01/07 10:10:29;;;;;;;15.90;7.45;;;;;;;;;;5074161;28;20039;-87
2022/01/07 10:16:26;;;;;;;10.90;6.72;;;;;;;;;;5065641;28;20052;-85
2022/01/07 10:18:58;;;;;;;11.98;6.70;;;;;;;;;;5071044;28;20032;-84
2022/01/07 10:21:33;;;;;;;13.55;6.55;;;;;;;;;;5073299;28;20452;-85
2022/01/07 10:24:02;;;;;;;9.57;5.85;;;;;;;;;;5074629;28;20028;-88
2022/01/07 10:26:31;;;;;;;9.13;5.85;;;;;;;;;;5072813;28;20032;-88
2022/01/07 10:28:59;;;;;;;9.00;6.28;;;;;;;;;;5075070;28;20036;-85
2022/01/07 10:31:31;;;;;;;12.82;6.13;;;;;;;;;;5079402;28;20017;-86
2022/01/07 10:34:03;;;;;;;9.13;5.72;;;;;;;;;;5076788;28;20029;-86
2022/01/07 10:37:01;;;;;;;10.53;5.73;;;;;;;;;;5078716;28;20484;-86
2022/01/07 10:39:32;;;;;;;12.02;6.13;;;;;;;;;;5032136;28;20032;-88
2022/01/07 10:42:06;;;;;;;9.80;5.63;;;;;;;;;;5010612;28;20044;-87
2022/01/07 10:44:31;;;;;;;10.20;5.80;;;;;;;;;;5010200;28;20060;-86
2022/01/07 10:47:08;;;;;;;12.23;6.30;;;;;;;;;;5024510;28;20034;-88
2022/01/07 10:49:35;;;;;;;10.90;6.32;;;;;;;;;;5075921;28;20032;-87
2022/01/07 10:52:05;;;;;;;10.88;5.60;;;;;;;;;;5072267;28;20032;-88
2022/01/07 10:54:34;;;;;;;10.10;7.30;;;;;;;;;;5074719;28;20029;-85
2022/01/07 10:57:09;;;;;;;10.57;6.10;;;;;;;;;;5075888;28;20482;-88
2022/01/07 10:59:35;;;;;;;10.63;5.50;;;;;;;;;;5073875;28;20089;-86
2022/01/07 11:02:05;;;;;;;10.75;5.35;;;;;;;;;;5077213;28;20428;-87
2022/01/07 11:04:35;;;;;;;10.70;5.82;;;;;;;;;;5075270;28;20046;-86
2022/01/07 11:07:12;;;;;;;9.50;5.72;;;;;;;;;;5073330;28;20025;-86
2022/01/07 11:09:38;;;;;;;6.78;4.80;;;;;;;;;;5076092;28;20094;-87
2022/01/07 11:12:06;;;;;;;12.63;5.07;;;;;;;;;;5079898;28;20020;-86
2022/01/07 11:14:40;;;;;;;10.82;4.80;;;;;;;;;;5074253;28;20039;-85
2022/01/07 11:17:12;;;;;;;12.95;5.40;;;;;;;;;;5074946;28;20048;-86
2022/01/07 11:19:42;;;;;;;8.43;4.70;;;;;;;;;;5078615;28;20032;-87
2022/01/07 11:22:13;;;;;;;9.63;4.32;;;;;;;;;;5080052;28;20521;-86
2022/01/07 11:25:06;;;;;;;11.45;4.57;;;;;;;;;;5076048;28;20398;-85
2022/01/07 11:27:48;;;;;;;13.48;5.05;;;;;;;;;;5075111;28;20063;-88
2022/01/07 11:30:18;;;;;;;10.68;4.68;;;;;;;;;;5078648;28;20043;-86
2022/01/07 11:32:48;;;;;;;10.07;4.90;;;;;;;;;;5074449;28;20028;-85
2022/01/07 11:35:17;;;;;;;9.88;4.43;;;;;;;;;;5078881;28;21317;-85
2022/01/07 11:37:44;;;;;;;14.30;4.53;;;;;;;;;;5074141;28;20115;-88
2022/01/07 11:40:38;;;;;;;8.13;4.70;;;;;;;;;;5076673;28;20099;-87
2022/01/07 11:43:26;;;;;;;13.15;4.80;;;;;;;;;;5062275;28;20112;-87
2022/01/07 11:46:03;;;;;;;12.88;4.82;;;;;;;;;;5077516;28;20061;-85
2022/01/07 11:48:37;;;;;;;13.25;5.43;;;;;;;;;;5077075;28;20040;-83
2022/01/07 11:51:14;;;;;;;11.98;5.43;;;;;;;;;;5077000;28;20026;-84
2022/01/07 11:53:52;;;;;;;8.32;4.93;;;;;;;;;;5083502;28;20028;-84
2022/01/07 11:56:24;;;;;;;14.35;5.80;;;;;;;;;;5081444;28;20397;-85
2022/01/07 11:58:55;;;;;;;14.30;6.25;;;;;;;;;;5069067;28;20032;-87
2022/01/07 12:01:35;;;;;;;14.77;6.07;;;;;;;;;;5085409;28;20034;-86
2022/01/07 12:04:21;;;;;;;11.50;5.75;;;;;;;;;;5080008;28;20029;-85
2022/01/07 12:06:48;;;;;;;11.40;6.63;;;;;;;;;;5084209;28;20079;-88
2022/01/07 12:09:25;;;;;;;12.05;6.20;;;;;;;;;;5078278;28;20381;-86
2022/01/07 12:12:16;;;;;;;13.48;6.80;;;;;;;;;;5082576;28;20016;-88
2022/01/07 12:14:55;;;;;;;16.63;8.15;;;;;;;;;;5073941;28;20115;-87
2022/01/07 12:17:48;;;;;;;11.50;6.57;;;;;;;;;;5081135;28;20048;-87
2022/01/07 12:20:49;;;;;;;13.80;5.88;;;;;;;;;;5023499;28;20065;-85
2022/01/07 12:23:22;;;;;;;13.38;5.30;;;;;;;;;;5010665;28;20033;-85
2022/01/07 12:25:49;;;;;;;9.15;5.40;;;;;;;;;;4995776;28;20124;-87
2022/01/07 12:28:22;;;;;;;11.32;5.10;;;;;;;;;;5003816;28;20040;-88
2022/01/07 12:30:51;;;;;;;13.45;5.32;;;;;;;;;;5011737;28;20447;-88
2022/01/07 12:33:20;;;;;;;10.63;5.13;;;;;;;;;;5009417;28;20026;-88
2022/01/07 12:35:51;;;;;;;9.73;5.28;;;;;;;;;;5078726;28;20513;-86
2022/01/07 12:38:21;;;;;;;11.07;5.53;;;;;;;;;;5073332;28;20035;-86
2022/01/07 12:41:23;;;;;;;9.48;5.88;;;;;;;;;;5082905;28;20028;-85
2022/01/07 12:47:54;;;;;;;11.75;5.28;;;;;;;;;;5051155;28;20043;-86
2022/01/07 12:50:29;;;;;;;9.77;5.30;;;;;;;;;;5079119;28;20032;-85
2022/01/07 12:52:54;;;;;;;9.43;5.82;;;;;;;;;;5081919;28;20107;-87
2022/01/07 12:55:26;;;;;;;13.55;5.25;;;;;;;;;;5079423;28;20468;-85
2022/01/07 13:01:31;;;;;;;7.47;4.85;;;;;;;;;;5050387;28;20291;-86
2022/01/07 13:04:55;;;;;;;11.35;5.70;;;;;;;;;;5075258;28;20032;-86
2022/01/07 13:07:24;;;;;;;12.40;5.90;;;;;;;;;;5080894;28;20029;-86
2022/01/07 13:10:01;;;;;;;10.13;6.18;;;;;;;;;;5073534;28;20081;-87
2022/01/07 13:12:27;;;;;;;13.60;7.47;;;;;;;;;;5080112;28;20114;-88
2022/01/07 13:14:55;;;;;;;10.75;6.28;;;;;;;;;;5077414;28;20128;-88
2022/01/07 13:17:28;;;;;;;10.85;6.22;;;;;;;;;;5077675;28;20403;-87
2022/01/07 13:19:57;;;;;;;14.20;6.82;;;;;;;;;;5065015;28;20704;-87
2022/01/07 13:22:29;;;;;;;13.13;6.97;;;;;;;;;;5075906;28;20040;-85
2022/01/07 13:24:58;;;;;;;12.68;7.35;;;;;;;;;;5072800;28;20236;-86
2022/01/07 13:27:28;;;;;;;15.75;6.93;;;;;;;;;;5073165;28;20044;-88
2022/01/07 13:29:58;;;;;;;11.43;6.80;;;;;;;;;;5076182;28;20037;-86
2022/01/07 13:32:30;;;;;;;12.18;6.13;;;;;;;;;;5074981;28;20028;-85
2022/01/07 13:35:28;;;;;;;12.02;5.82;;;;;;;;;;5072495;28;22683;-87
2022/01/07 13:38:02;;;;;;;14.60;6.68;;;;;;;;;;5028927;28;20093;-86
2022/01/07 13:40:33;;;;;;;12.45;6.03;;;;;;;;;;5075908;28;20154;-86
2022/01/07 13:43:20;;;;;;;13.45;5.90;;;;;;;;;;5076477;28;20452;-87
2022/01/07 13:49:06;;;;;;;12.65;5.40;;;;;;;;;;5076027;28;20038;-87
2022/01/07 13:51:34;;;;;;;13.40;5.90;;;;;;;;;;5073484;28;20024;-87
2022/01/07 13:55:04;;;;;;;10.55;6.10;;;;;;;;;;5070931;28;20040;-85
2022/01/07 13:57:33;;;;;;;16.65;6.40;;;;;;;;;;5004648;28;20519;-88
2022/01/07 14:00:03;;;;;;;10.77;5.57;;;;;;;;;;4983817;28;20038;-87
2022/01/07 14:02:33;;;;;;;10.60;6.03;;;;;;;;;;5000091;28;20073;-85
2022/01/07 14:05:34;;;;;;;12.85;6.35;;;;;;;;;;4985790;28;20026;-85
2022/01/07 14:08:11;;;;;;;14.32;5.95;;;;;;;;;;5015996;28;20054;-86
2022/01/07 14:10:39;;;;;;;13.10;7.32;;;;;;;;;;5068623;28;20043;-85
2022/01/07 14:13:06;;;;;;;16.70;6.93;;;;;;;;;;5077178;28;20016;-85
2022/01/07 14:15:42;;;;;;;17.50;7.22;;;;;;;;;;5078357;28;20059;-84
2022/01/07 14:18:37;;;;;;;13.23;6.63;;;;;;;;;;5081072;28;20390;-84
2022/01/07 14:21:36;;;;;;;10.65;6.38;;;;;;;;;;5069178;28;20772;-83
2022/01/07 14:24:10;;;;;;;11.27;5.82;;;;;;;;;;5077147;28;20123;-82
2022/01/07 14:26:47;;;;;;;17.08;7.07;;;;;;;;;;5073729;28;20067;-86
2022/01/07 14:29:13;;;;;;;14.30;6.38;;;;;;;;;;5074000;28;20029;-85
2022/01/07 14:31:38;;;;;;;11.45;4.78;;;;;;;;;;5070507;28;20086;-85
2022/01/07 14:34:10;;;;;;;8.80;3.30;;;;;;;;;;5072361;28;20051;-83
2022/01/07 14:36:46;;;;;;;9.15;3.90;;;;;;;;;;5071720;28;20035;-83
2022/01/07 14:39:12;;;;;;;8.73;4.78;;;;;;;;;;5076410;28;20531;-85
2022/01/07 14:41:40;;;;;;;9.27;4.30;;;;;;;;;;5070791;28;20032;-85
2022/01/07 14:44:11;;;;;;;11.95;3.60;;;;;;;;;;5075957;28;20024;-84
2022/01/07 14:46:39;;;;;;;7.65;3.15;;;;;;;;;;5071049;28;20066;-86
2022/01/07 14:49:12;;;;;;;8.90;3.35;;;;;;;;;;5072010;28;20082;-85
2022/01/07 14:51:44;;;;;;;7.15;3.28;;;;;;;;;;5076274;28;20027;-86
2022/01/07 14:54:12;;;;;;;9.07;3.50;;;;;;;;;;5076713;28;20036;-82
2022/01/07 14:56:59;;;;;;;;;;;;;;;;;;;;;
2022/01/07 14:59:43;;;;;;;8.25;3.92;;;;;;;;;;5074812;28;20023;-86
2022/01/07 15:02:15;;;;;;;;;;;;;;;;;;5075438;28;20070;-87
2022/01/07 15:04:44;;;;;;;13.32;6.45;;;;;;;;;;5084774;28;19919;-87
2022/01/07 15:07:13;;;;;;;12.73;6.70;;;;;;;;;;5080321;28;20023;-87
2022/01/07 15:09:44;;;;;;;11.00;5.70;;;;;;;;;;5071865;28;20027;-86